createdAt,value
2019-01-24T00:01:01.309Z,99572.28
2019-01-24T00:03:51.027Z,99573.92
2019-01-24T00:06:40.883Z,99577.03
2019-01-24T00:09:30.655Z,99580.34
2019-01-24T00:12:20.309Z,99583.45
2019-01-24T00:15:11.058Z,99582.93
2019-01-24T00:18:00.909Z,99589.53
2019-01-24T00:20:50.752Z,99589.70
2019-01-24T00:23:42.161Z,99598.28
2019-01-24T00:26:32.025Z,99599.78
2019-01-24T00:29:22.227Z,99599.92
2019-01-24T00:32:11.367Z,99600.75
2019-01-24T00:35:01.664Z,99602.91
2019-01-24T00:37:51.555Z,99605.90
2019-01-24T00:40:41.863Z,99604.89
2019-01-24T00:43:32.045Z,99610.35
2019-01-24T00:46:21.805Z,99614.80
2019-01-24T00:49:12.176Z,99619.59
2019-01-24T00:52:02.352Z,99619.11
2019-01-24T00:54:52.366Z,99621.59
2019-01-24T00:57:42.615Z,99628.02
2019-01-24T01:00:32.742Z,99626.20
2019-01-24T01:03:22.953Z,99628.19
2019-01-24T01:06:12.944Z,99620.61
2019-01-24T01:09:03.421Z,99617.30
2019-01-24T01:11:54.793Z,99620.75
2019-01-24T01:14:44.634Z,99629.33
2019-01-24T01:17:34.492Z,99633.16
2019-01-24T01:20:25.195Z,99629.81
2019-01-24T01:23:15.937Z,99627.69
2019-01-24T01:26:06.587Z,99626.03
2019-01-24T01:28:56.783Z,99623.09
2019-01-24T01:31:46.744Z,99628.37
2019-01-24T01:34:37.825Z,99626.92
2019-01-24T01:37:27.663Z,99629.56
2019-01-24T01:40:18.174Z,99628.06
2019-01-24T01:43:08.054Z,99628.55
2019-01-24T01:45:58.231Z,99631.55
2019-01-24T01:48:48.206Z,99634.19
2019-01-24T01:51:38.235Z,99633.18
2019-01-24T01:54:28.202Z,99635.17
2019-01-24T01:57:18.172Z,99636.67
2019-01-24T02:00:10.232Z,99640.48
2019-01-24T02:02:59.986Z,99640.81
2019-01-24T02:05:50.045Z,99643.67
2019-01-24T02:08:40.143Z,99643.03
2019-01-24T02:11:30.596Z,99643.87
2019-01-24T02:14:19.860Z,99644.74
2019-01-24T02:17:09.966Z,99643.42
2019-01-24T02:19:59.794Z,99646.91
2019-01-24T02:22:49.887Z,99644.95
2019-01-24T02:25:40.006Z,99640.98
2019-01-24T02:28:30.134Z,99647.45
2019-01-24T02:31:20.104Z,99650.58
2019-01-24T02:34:09.520Z,99657.19
2019-01-24T02:36:59.311Z,99654.58
2019-01-24T02:39:57.854Z,99657.87
2019-01-24T02:42:47.877Z,99657.87
2019-01-24T02:45:37.744Z,99669.78
2019-01-24T02:48:27.335Z,99665.64
2019-01-24T02:51:17.651Z,99667.47
2019-01-24T02:54:07.883Z,99666.48
2019-01-24T02:56:58.180Z,99672.78
2019-01-24T02:59:48.338Z,99666.98
2019-01-24T03:02:38.348Z,99674.08
2019-01-24T03:05:28.233Z,99676.09
2019-01-24T03:08:18.229Z,99672.44
2019-01-24T03:11:08.273Z,99675.73
2019-01-24T03:13:58.091Z,99681.36
2019-01-24T03:16:48.413Z,99679.72
2019-01-24T03:19:38.322Z,99680.20
2019-01-24T03:22:28.495Z,99682.70
2019-01-24T03:25:19.541Z,99681.20
2019-01-24T03:28:09.935Z,99686.34
2019-01-24T03:30:59.907Z,99687.80
2019-01-24T03:33:50.101Z,99689.28
2019-01-24T03:36:40.555Z,99684.01
2019-01-24T03:39:30.732Z,99682.81
2019-01-24T03:42:20.782Z,99680.67
2019-01-24T03:45:13.565Z,99684.66
2019-01-24T03:48:03.350Z,99681.51
2019-01-24T03:50:53.496Z,99679.34
2019-01-24T03:53:43.595Z,99688.30
2019-01-24T03:56:33.637Z,99681.98
2019-01-24T03:59:23.514Z,99678.01
2019-01-24T04:02:13.386Z,99678.66
2019-01-24T04:05:03.842Z,99681.48
2019-01-24T04:07:54.206Z,99677.02
2019-01-24T04:10:44.430Z,99675.69
2019-01-24T04:13:34.694Z,99684.96
2019-01-24T04:16:24.918Z,99687.94
2019-01-24T04:19:14.754Z,99693.58
2019-01-24T04:22:04.680Z,99695.88
2019-01-24T04:24:54.692Z,99701.19
2019-01-24T04:27:44.691Z,99703.85
2019-01-24T04:30:35.822Z,99711.78
2019-01-24T04:33:25.556Z,99701.34
2019-01-24T04:36:15.630Z,99705.62
2019-01-24T04:39:08.323Z,99703.47
2019-01-24T04:41:57.956Z,99700.83
2019-01-24T04:44:47.840Z,99694.85
2019-01-24T04:47:37.587Z,99703.13
2019-01-24T04:50:27.090Z,99699.98
2019-01-24T04:53:17.243Z,99697.83
2019-01-24T04:56:07.353Z,99701.64
2019-01-24T04:58:57.333Z,99701.46
2019-01-24T05:01:48.530Z,99707.27
2019-01-24T05:04:38.512Z,99707.59
2019-01-24T05:07:28.924Z,99710.39
2019-01-24T05:10:18.635Z,99713.02
2019-01-24T05:13:08.184Z,99718.15
2019-01-24T05:15:58.453Z,99726.78
2019-01-24T05:18:49.041Z,99735.36
2019-01-24T05:21:39.129Z,99740.02
2019-01-24T05:24:28.794Z,99739.52
2019-01-24T05:27:18.574Z,99740.52
2019-01-24T05:30:25.230Z,99746.11
2019-01-24T05:33:15.343Z,99745.80
2019-01-24T05:36:05.847Z,99753.76
2019-01-24T05:38:56.171Z,99753.73
2019-01-24T05:41:46.250Z,99759.02
2019-01-24T05:44:36.236Z,99760.34
2019-01-24T05:47:26.172Z,99770.63
2019-01-24T05:50:16.219Z,99769.34
2019-01-24T05:53:06.139Z,99770.00
2019-01-24T05:55:56.284Z,99770.97
2019-01-24T05:58:46.034Z,99767.34
2019-01-24T06:01:36.614Z,99773.31
2019-01-24T06:04:26.456Z,99770.99
2019-01-24T06:07:16.407Z,99776.64
2019-01-24T06:10:10.148Z,99777.80
2019-01-24T06:12:59.980Z,99783.76
2019-01-24T06:15:50.067Z,99776.33
2019-01-24T06:18:39.974Z,99778.95
2019-01-24T06:21:30.087Z,99791.20
2019-01-24T06:24:19.890Z,99789.23
2019-01-24T06:27:10.273Z,99793.55
2019-01-24T06:30:00.321Z,99793.53
2019-01-24T06:32:49.851Z,99784.41
2019-01-24T06:35:40.006Z,99792.02
2019-01-24T06:38:29.956Z,99793.51
2019-01-24T06:41:20.308Z,99803.77
2019-01-24T06:44:10.297Z,99807.73
2019-01-24T06:47:00.406Z,99809.41
2019-01-24T06:49:49.952Z,99812.07
2019-01-24T06:52:40.067Z,99815.87
2019-01-24T06:55:30.538Z,99815.05
2019-01-24T06:58:20.666Z,99825.97
2019-01-24T07:01:10.652Z,99819.20
2019-01-24T07:04:00.153Z,99824.97
2019-01-24T07:06:50.374Z,99828.13
2019-01-24T07:09:40.292Z,99823.83
2019-01-24T07:12:29.867Z,99834.11
2019-01-24T07:15:22.066Z,99839.56
2019-01-24T07:18:12.007Z,99848.01
2019-01-24T07:21:01.847Z,99846.86
2019-01-24T07:23:52.314Z,99853.64
2019-01-24T07:26:42.441Z,99853.79
2019-01-24T07:29:32.754Z,99860.93
2019-01-24T07:32:23.011Z,99856.97
2019-01-24T07:35:15.274Z,99864.08
2019-01-24T07:38:06.315Z,99860.75
2019-01-24T07:40:56.349Z,99865.73
2019-01-24T07:43:46.715Z,99863.74
2019-01-24T07:46:37.156Z,99868.85
2019-01-24T07:49:27.231Z,99871.83
2019-01-24T07:52:17.422Z,99879.95
2019-01-24T07:55:08.022Z,99880.63
2019-01-24T07:57:58.018Z,99884.63
2019-01-24T08:00:48.451Z,99891.22
2019-01-24T08:03:38.476Z,99890.55
2019-01-24T08:06:28.423Z,99894.20
2019-01-24T08:09:18.417Z,99889.23
2019-01-24T08:12:08.376Z,99899.34
2019-01-24T08:14:58.486Z,99900.98
2019-01-24T08:17:48.197Z,99894.53
2019-01-24T08:20:38.127Z,99901.48
2019-01-24T08:23:28.141Z,99900.97
2019-01-24T08:26:17.938Z,99907.45
2019-01-24T08:29:07.986Z,99906.27
2019-01-24T08:31:57.518Z,99907.59
2019-01-24T08:34:47.561Z,99907.75
2019-01-24T08:37:37.449Z,99895.46
2019-01-24T08:40:27.716Z,99908.91
2019-01-24T08:43:17.864Z,99913.08
2019-01-24T08:46:08.115Z,99913.72
2019-01-24T08:48:57.985Z,99916.39
2019-01-24T08:51:47.785Z,99919.70
2019-01-24T08:54:37.768Z,99914.70
2019-01-24T08:57:27.295Z,99912.37
2019-01-24T09:00:19.550Z,99914.39
2019-01-24T09:03:09.236Z,99914.70
2019-01-24T09:05:59.176Z,99917.49
2019-01-24T09:08:48.810Z,99922.31
2019-01-24T09:11:38.731Z,99928.64
2019-01-24T09:14:29.047Z,99929.60
2019-01-24T09:17:19.168Z,99924.29
2019-01-24T09:20:12.563Z,99931.23
2019-01-24T09:23:02.265Z,99930.59
2019-01-24T09:25:51.737Z,99927.75
2019-01-24T09:28:41.766Z,99935.73
2019-01-24T09:31:32.057Z,99929.75
2019-01-24T09:34:22.302Z,99932.22
2019-01-24T09:37:12.140Z,99931.53
2019-01-24T09:40:02.402Z,99940.18
2019-01-24T09:42:52.905Z,99944.14
2019-01-24T09:45:43.350Z,99946.12
2019-01-24T09:48:33.414Z,99950.38
2019-01-24T09:51:23.204Z,99951.49
2019-01-24T09:54:13.241Z,99961.11
2019-01-24T09:57:03.343Z,99955.80
2019-01-24T09:59:53.164Z,99959.80
2019-01-24T10:02:43.152Z,99955.95
2019-01-24T10:05:33.052Z,99962.44
2019-01-24T10:08:22.977Z,99949.63
2019-01-24T10:11:12.963Z,99961.95
2019-01-24T10:14:02.690Z,99963.78
2019-01-24T10:16:53.834Z,99969.91
2019-01-24T10:19:43.596Z,99961.38
2019-01-24T10:22:33.107Z,99970.80
2019-01-24T10:25:29.621Z,99970.09
2019-01-24T10:28:20.040Z,99968.09
2019-01-24T10:31:10.116Z,99973.22
2019-01-24T10:34:00.314Z,99965.59
2019-01-24T10:36:51.381Z,99970.52
2019-01-24T10:39:41.263Z,99969.52
2019-01-24T10:42:30.953Z,99965.51
2019-01-24T10:45:21.911Z,99969.31
2019-01-24T10:48:11.922Z,99964.77
2019-01-24T10:51:01.627Z,99962.11
2019-01-24T10:53:52.004Z,99962.38
2019-01-24T10:56:41.725Z,99968.84
2019-01-24T10:59:31.844Z,99962.84
2019-01-24T11:02:21.810Z,99960.60
2019-01-24T11:05:13.376Z,99954.67
2019-01-24T11:08:03.877Z,99956.61
2019-01-24T11:10:53.837Z,99961.09
2019-01-24T11:13:43.730Z,99954.38
2019-01-24T11:16:33.523Z,99952.31
2019-01-24T11:19:23.354Z,99958.25
2019-01-24T11:22:13.080Z,99956.88
2019-01-24T11:25:02.888Z,99960.18
2019-01-24T11:27:53.011Z,99955.47
2019-01-24T11:30:42.759Z,99959.11
2019-01-24T11:33:32.752Z,99962.08
2019-01-24T11:36:22.831Z,99964.47
2019-01-24T11:39:12.751Z,99963.45
2019-01-24T11:42:03.009Z,99960.79
2019-01-24T11:44:53.207Z,99959.41
2019-01-24T11:47:43.772Z,99956.81
2019-01-24T11:50:33.353Z,99960.25
2019-01-24T11:56:24.533Z,99963.70
2019-01-24T11:59:14.580Z,99956.80
2019-01-24T12:02:04.685Z,99959.95
2019-01-24T12:04:53.996Z,99957.94
2019-01-24T12:07:44.854Z,99957.75
2019-01-24T12:10:34.754Z,99960.79
2019-01-24T12:13:24.840Z,99954.63
2019-01-24T12:16:14.663Z,99957.24
2019-01-24T12:19:04.499Z,99949.06
2019-01-24T12:21:54.241Z,99958.34
2019-01-24T12:24:44.075Z,99960.34
2019-01-24T12:27:35.075Z,99963.86
2019-01-24T12:30:33.713Z,99960.50
2019-01-24T12:33:25.340Z,99954.44
2019-01-24T12:36:15.067Z,99953.36
2019-01-24T12:39:08.982Z,99952.86
2019-01-24T12:41:58.815Z,99960.01
2019-01-24T12:44:48.518Z,99951.98
2019-01-24T12:47:38.568Z,99947.69
2019-01-24T12:50:28.186Z,99948.63
2019-01-24T12:53:18.120Z,99945.56
2019-01-24T12:56:08.409Z,99949.11
2019-01-24T12:58:58.913Z,99942.71
2019-01-24T13:01:49.335Z,99944.19
2019-01-24T13:04:39.395Z,99944.52
2019-01-24T13:07:29.804Z,99950.40
2019-01-24T13:10:22.441Z,99947.53
2019-01-24T13:13:11.822Z,99950.34
2019-01-24T13:16:01.914Z,99949.03
2019-01-24T13:18:52.183Z,99944.58
2019-01-24T13:21:42.333Z,99945.91
2019-01-24T13:24:32.466Z,99952.23
2019-01-24T13:27:22.149Z,99958.42
2019-01-24T13:30:22.735Z,99958.31
2019-01-24T13:33:12.719Z,99955.47
2019-01-24T13:36:02.442Z,99957.18
2019-01-24T13:38:52.645Z,99960.83
2019-01-24T13:41:42.799Z,99964.81
2019-01-24T13:44:32.789Z,99959.05
2019-01-24T13:47:22.342Z,99959.88
2019-01-24T13:50:15.181Z,99961.25
2019-01-24T13:53:05.987Z,99970.56
2019-01-24T13:55:57.014Z,99972.77
2019-01-24T13:58:47.400Z,99978.08
2019-01-24T14:01:36.930Z,99972.61
2019-01-24T14:04:36.787Z,99986.59
2019-01-24T14:07:32.831Z,99981.68
2019-01-24T14:10:18.208Z,99981.46
2019-01-24T14:13:08.013Z,99983.59
2019-01-24T14:15:59.221Z,99981.77
2019-01-24T14:18:49.529Z,99979.91
2019-01-24T14:21:39.834Z,99974.09
2019-01-24T14:24:29.634Z,99980.41
2019-01-24T14:27:20.768Z,99977.93
2019-01-24T14:30:22.334Z,99983.94
2019-01-24T14:33:13.037Z,99986.31
2019-01-24T14:36:04.673Z,99997.30
2019-01-24T14:38:56.417Z,99993.76
2019-01-24T14:41:47.967Z,99993.67
2019-01-24T14:44:40.434Z,99993.34
2019-01-24T14:47:32.416Z,100000.97
2019-01-24T14:50:27.750Z,99996.34
2019-01-24T14:53:21.208Z,100003.81
2019-01-24T14:56:13.958Z,100003.35
2019-01-24T14:59:07.344Z,100009.34
2019-01-24T15:02:00.396Z,100011.72
2019-01-24T15:04:53.576Z,100018.16
2019-01-24T15:07:47.348Z,100015.98
2019-01-24T15:10:40.462Z,100025.30
2019-01-24T15:13:32.908Z,100025.95
2019-01-24T15:16:24.587Z,100027.96
2019-01-24T15:19:15.672Z,100030.61
2019-01-24T15:22:06.363Z,100028.63
2019-01-24T15:24:58.152Z,100024.34
2019-01-24T15:27:49.504Z,100029.96
2019-01-24T15:30:42.097Z,100026.65
2019-01-24T15:33:34.664Z,100031.99
2019-01-24T15:36:27.429Z,100037.67
2019-01-24T15:39:19.351Z,100043.00
2019-01-24T15:42:11.510Z,100051.17
2019-01-24T15:45:03.671Z,100061.62
2019-01-24T15:47:57.078Z,100055.62
2019-01-24T15:50:50.478Z,100059.63
2019-01-24T15:53:45.153Z,100060.95
2019-01-24T15:56:38.435Z,100060.14
2019-01-24T15:59:30.691Z,100060.95
2019-01-24T16:02:24.700Z,100060.95
2019-01-24T16:05:17.498Z,100064.25
2019-01-24T16:08:09.595Z,100070.90
2019-01-24T16:11:01.053Z,100065.27
2019-01-24T16:13:53.079Z,100068.42
2019-01-24T16:16:46.344Z,100074.23
2019-01-24T16:19:39.538Z,100075.91
2019-01-24T16:22:30.779Z,100084.53
2019-01-24T16:25:23.228Z,100090.36
2019-01-24T16:28:15.047Z,100086.88
2019-01-24T16:31:07.140Z,100087.21
2019-01-24T16:33:59.654Z,100093.02
2019-01-24T16:36:50.859Z,100092.52
2019-01-24T16:39:44.274Z,100095.02
2019-01-24T16:42:35.945Z,100102.83
2019-01-24T16:45:30.905Z,100106.31
2019-01-24T16:48:25.633Z,100109.80
2019-01-24T16:51:16.964Z,100107.98
2019-01-24T16:54:09.111Z,100102.17
2019-01-24T16:57:02.228Z,100104.47
2019-01-24T16:59:54.648Z,100104.64
2019-01-24T17:02:48.473Z,100111.11
2019-01-24T17:05:40.457Z,100106.98
2019-01-24T17:08:34.190Z,100108.98
2019-01-24T17:11:25.857Z,100114.13
2019-01-24T17:14:22.333Z,100112.45
2019-01-24T17:17:14.271Z,100115.95
2019-01-24T17:20:13.479Z,100119.59
2019-01-24T17:23:08.483Z,100120.09
2019-01-24T17:26:01.701Z,100119.94
2019-01-24T17:28:55.346Z,100119.80
2019-01-24T17:31:49.963Z,100113.47
2019-01-24T17:34:44.754Z,100117.14
2019-01-24T17:37:39.554Z,100114.14
2019-01-24T17:40:34.062Z,100115.16
2019-01-24T17:43:27.890Z,100115.13
2019-01-24T17:46:20.781Z,100116.81
2019-01-24T17:49:15.458Z,100116.47
2019-01-24T17:52:09.488Z,100112.98
2019-01-24T17:55:03.173Z,100117.47
2019-01-24T17:57:55.053Z,100131.73
2019-01-24T18:00:51.728Z,100124.27
2019-01-24T18:03:45.476Z,100130.42
2019-01-24T18:06:40.534Z,100124.45
2019-01-24T18:09:35.279Z,100128.41
2019-01-24T18:12:29.835Z,100133.41
2019-01-24T18:15:31.759Z,100139.71
2019-01-24T18:18:26.724Z,100138.73
2019-01-24T18:21:24.565Z,100141.70
2019-01-24T18:24:21.244Z,100152.84
2019-01-24T18:27:17.501Z,100149.01
2019-01-24T18:30:18.204Z,100149.84
2019-01-24T18:33:13.661Z,100160.48
2019-01-24T18:36:08.299Z,100167.92
2019-01-24T18:39:05.059Z,100166.61
2019-01-24T18:41:59.850Z,100170.94
2019-01-24T18:44:54.309Z,100175.91
2019-01-24T18:47:50.287Z,100175.76
2019-01-24T18:50:48.719Z,100183.86
2019-01-24T18:53:44.799Z,100188.86
2019-01-24T18:56:39.672Z,100190.19
2019-01-24T18:59:34.945Z,100193.34
2019-01-24T19:02:31.458Z,100190.86
2019-01-24T19:05:30.328Z,100194.17
2019-01-24T19:08:28.091Z,100192.19
2019-01-24T19:11:24.395Z,100198.80
2019-01-24T19:14:39.129Z,100202.79
2019-01-24T19:17:35.638Z,100206.11
2019-01-24T19:20:33.368Z,100208.77
2019-01-24T19:23:31.135Z,100212.43
2019-01-24T19:26:27.484Z,100212.26
2019-01-24T19:29:24.815Z,100212.08
2019-01-24T19:32:23.043Z,100212.43
2019-01-24T19:35:20.101Z,100209.11
2019-01-24T19:38:17.135Z,100214.56
2019-01-24T19:41:13.303Z,100217.71
2019-01-24T19:44:15.671Z,100221.38
2019-01-24T19:47:07.072Z,100227.36
2019-01-24T19:50:05.114Z,100227.17
2019-01-24T19:53:02.094Z,100225.68
2019-01-24T19:56:00.886Z,100228.83
2019-01-24T19:58:56.699Z,100228.51
2019-01-24T20:01:53.351Z,100228.02
2019-01-24T20:05:08.219Z,100228.86
2019-01-24T20:08:06.643Z,100237.63
2019-01-24T20:11:03.916Z,100231.66
2019-01-24T20:14:01.102Z,100238.95
2019-01-24T20:16:58.517Z,100242.62
2019-01-24T20:20:12.717Z,100243.95
2019-01-24T20:23:09.265Z,100241.95
2019-01-24T20:26:07.280Z,100249.78
2019-01-24T20:29:03.936Z,100245.80
2019-01-24T20:32:01.107Z,100251.92
2019-01-24T20:34:57.450Z,100261.88
2019-01-24T20:37:50.954Z,100255.23
2019-01-24T20:40:46.618Z,100256.91
2019-01-24T20:43:43.635Z,100255.06
2019-01-24T20:46:38.810Z,100260.55
2019-01-24T20:49:35.476Z,100267.50
2019-01-24T20:52:30.551Z,100261.53
2019-01-24T20:55:26.043Z,100262.55
2019-01-24T20:58:18.385Z,100266.03
2019-01-24T21:01:14.163Z,100265.52
2019-01-24T21:04:08.566Z,100270.02
2019-01-24T21:07:04.449Z,100266.84
2019-01-24T21:09:58.649Z,100263.20
2019-01-24T21:12:53.258Z,100269.84
2019-01-24T21:15:46.804Z,100269.49
2019-01-24T21:18:40.989Z,100272.46
2019-01-24T21:21:35.082Z,100271.97
2019-01-24T21:24:26.508Z,100271.14
2019-01-24T21:27:21.620Z,100271.00
2019-01-24T21:30:22.001Z,100266.17
2019-01-24T21:33:14.901Z,100277.77
2019-01-24T21:36:08.454Z,100271.98
2019-01-24T21:39:01.695Z,100279.80
2019-01-24T21:41:55.345Z,100284.63
2019-01-24T21:44:46.584Z,100290.42
2019-01-24T21:47:37.898Z,100285.95
2019-01-24T21:50:32.274Z,100277.14
2019-01-24T21:53:24.335Z,100277.46
2019-01-24T21:56:16.787Z,100277.32
2019-01-24T21:59:08.682Z,100282.81
2019-01-24T22:02:00.733Z,100282.81
2019-01-24T22:04:51.040Z,100278.48
2019-01-24T22:07:41.996Z,100277.15
2019-01-24T22:10:32.264Z,100273.34
2019-01-24T22:13:22.535Z,100277.67
2019-01-24T22:16:15.308Z,100280.47
2019-01-24T22:19:05.911Z,100276.83
2019-01-24T22:21:56.585Z,100279.31
2019-01-24T22:24:46.626Z,100278.30
2019-01-24T22:27:36.751Z,100277.14
2019-01-24T22:30:33.377Z,100279.45
2019-01-24T22:33:25.322Z,100281.62
2019-01-24T22:36:15.569Z,100274.49
2019-01-24T22:39:09.650Z,100272.98
2019-01-24T22:41:59.618Z,100276.13
2019-01-24T22:44:50.054Z,100275.16
2019-01-24T22:47:39.919Z,100283.30
2019-01-24T22:50:30.235Z,100279.80
2019-01-24T22:53:20.140Z,100274.31
2019-01-24T22:56:10.394Z,100278.66
2019-01-24T22:58:59.883Z,100275.02
2019-01-24T23:02:02.491Z,100270.51
2019-01-24T23:04:52.625Z,100268.38
2019-01-24T23:07:42.269Z,100272.50
2019-01-24T23:10:32.388Z,100272.50
2019-01-24T23:13:22.256Z,100267.19
2019-01-24T23:16:12.345Z,100267.19
2019-01-24T23:19:02.229Z,100257.58
2019-01-24T23:21:51.840Z,100257.05
2019-01-24T23:24:42.115Z,100254.92
2019-01-24T23:27:31.990Z,100253.73
2019-01-24T23:30:21.851Z,100253.91
2019-01-24T23:33:11.451Z,100258.88
2019-01-24T23:36:01.023Z,100253.91
2019-01-24T23:38:51.068Z,100257.05
2019-01-24T23:41:40.952Z,100260.86
2019-01-24T23:44:31.045Z,100261.35
2019-01-24T23:47:20.638Z,100260.55
2019-01-24T23:50:10.630Z,100266.00
2019-01-24T23:53:00.723Z,100266.03
2019-01-24T23:55:50.233Z,100270.82
2019-01-24T23:58:40.071Z,100265.86
